Time;durP1;ratioP1;P1;durP2;ratioP2;P2;SDS_P1;SDS_P2;PMS_P1;PMS_P2;Temp;Humidity;BMP_temperature;BMP_pressure;BME280_temperature;BME280_humidity;BME280_pressure;Samples;Min_cycle;Max_cycle;Signal;HPM_P1;HPM_P2
2024/01/23 00:02:20;;;;;;;51.05;25.20;;;;;;;-5.62;49.80;94882.88;5096225;28;20408;-70
2024/01/23 00:04:46;;;;;;;46.33;23.80;;;;;;;-5.72;49.71;94880.63;5114372;28;20028;-70
2024/01/23 00:07:11;;;;;;;56.53;30.75;;;;;;;-5.72;49.80;94885.81;5114981;28;20432;-70
2024/01/23 00:09:37;;;;;;;69.28;32.90;;;;;;;-5.64;49.62;94893.44;5114438;28;20084;-70
2024/01/23 00:12:02;;;;;;;66.88;36.40;;;;;;;-5.78;49.82;94883.94;5114364;28;20114;-70
2024/01/23 00:14:28;;;;;;;64.88;33.63;;;;;;;-5.80;49.85;94898.88;5096012;28;20442;-70
2024/01/23 00:16:53;;;;;;;62.03;33.40;;;;;;;-5.80;49.46;94897.06;5114377;28;20032;-70
2024/01/23 00:19:19;;;;;;;53.92;31.08;;;;;;;-5.90;49.68;94877.66;5114836;28;20679;-70
2024/01/23 00:21:44;;;;;;;59.83;28.90;;;;;;;-5.85;49.73;94875.31;5114184;28;20327;-70
2024/01/23 00:24:10;;;;;;;58.90;29.92;;;;;;;-5.73;50.19;94891.97;5114387;28;20039;-70
2024/01/23 00:26:35;;;;;;;59.40;29.75;;;;;;;-5.90;50.68;94880.22;5091818;28;20044;-70
2024/01/23 00:29:02;;;;;;;52.85;28.65;;;;;;;-5.87;50.76;94872.09;5093870;28;20032;-70
2024/01/23 00:31:28;;;;;;;46.55;24.63;;;;;;;-6.02;51.11;94867.00;5094300;28;20039;-70
2024/01/23 00:33:53;;;;;;;45.13;25.35;;;;;;;-6.00;50.63;94866.78;5093365;28;20024;-70
2024/01/23 00:36:19;;;;;;;48.15;25.45;;;;;;;-5.80;50.14;94880.72;5093628;28;20032;-70
2024/01/23 00:38:44;;;;;;;42.58;24.13;;;;;;;-5.99;50.51;94845.09;5093532;28;20378;-70
2024/01/23 00:41:10;;;;;;;62.80;30.55;;;;;;;-5.92;50.28;94858.91;5093466;28;20117;-70
2024/01/23 00:43:35;;;;;;;84.13;40.75;;;;;;;-5.81;49.95;94855.81;5093370;28;20024;-70
2024/01/23 00:46:01;;;;;;;84.40;42.30;;;;;;;-5.95;50.24;94843.72;5093809;28;20081;-70
2024/01/23 00:48:26;;;;;;;119.45;53.53;;;;;;;-6.09;50.58;94847.19;5093411;28;20028;-70
2024/01/23 00:50:51;;;;;;;125.15;60.28;;;;;;;-5.98;50.50;94854.47;5093672;28;20043;-70
2024/01/23 00:53:17;;;;;;;121.50;58.67;;;;;;;-5.86;50.20;94860.75;5092105;28;20048;-71
2024/01/23 00:55:42;;;;;;;121.53;59.88;;;;;;;-6.02;50.61;94838.50;5093026;28;20077;-70
2024/01/23 00:58:08;;;;;;;109.32;56.92;;;;;;;-5.95;49.92;94838.53;5093585;28;20020;-70
2024/01/23 01:00:33;;;;;;;118.30;58.40;;;;;;;-6.03;49.87;94836.09;5093173;28;20032;-70
2024/01/23 01:02:59;;;;;;;94.82;49.17;;;;;;;-5.97;49.89;94849.09;5093209;28;20471;-70
2024/01/23 01:05:24;;;;;;;90.43;47.47;;;;;;;-6.09;50.15;94844.59;5093192;28;20025;-70
2024/01/23 01:07:50;;;;;;;76.47;38.20;;;;;;;-6.01;50.39;94847.06;5092897;28;20028;-70
2024/01/23 01:10:15;;;;;;;80.68;39.65;;;;;;;-6.13;49.80;94836.41;5093648;28;20027;-70
2024/01/23 01:12:41;;;;;;;62.40;33.40;;;;;;;-6.21;49.97;94829.56;5093049;28;20036;-70
2024/01/23 01:15:07;;;;;;;61.20;34.28;;;;;;;-6.29;49.99;94827.09;5093066;28;20464;-70
2024/01/23 01:17:32;;;;;;;67.32;33.17;;;;;;;-6.29;50.30;94821.91;5092880;28;20036;-70
2024/01/23 01:19:58;;;;;;;67.40;33.72;;;;;;;-6.32;49.97;94817.09;5093019;28;20145;-70
2024/01/23 01:22:24;;;;;;;66.53;32.22;;;;;;;-6.15;49.84;94833.19;5093275;28;20400;-70
2024/01/23 01:24:49;;;;;;;70.68;33.20;;;;;;;-6.27;49.77;94814.78;5092686;28;20083;-70
2024/01/23 01:27:14;;;;;;;61.17;34.30;;;;;;;-6.20;49.92;94831.16;5109678;28;20453;-70
2024/01/23 01:29:41;;;;;;;69.50;35.08;;;;;;;-6.29;49.40;94798.59;5112937;28;20028;-70
2024/01/23 01:32:06;;;;;;;68.68;34.47;;;;;;;-6.27;49.65;94806.19;5112911;28;20028;-70
2024/01/23 01:34:32;;;;;;;74.82;36.13;;;;;;;-6.28;49.81;94802.81;5113414;28;20047;-70
2024/01/23 01:36:57;;;;;;;70.07;35.20;;;;;;;-6.24;49.95;94816.97;5113097;28;20103;-70
2024/01/23 01:39:23;;;;;;;75.20;36.25;;;;;;;-6.37;49.65;94809.09;5113066;28;20031;-70
2024/01/23 01:41:55;;;;;;;78.68;39.40;;;;;;;-6.40;49.84;94801.72;5112629;28;20439;-70
2024/01/23 01:44:21;;;;;;;72.07;38.65;;;;;;;-6.32;49.71;94803.34;5112559;28;20034;-70
2024/01/23 01:46:47;;;;;;;70.63;36.90;;;;;;;-6.23;49.36;94810.81;5112444;28;20019;-70
2024/01/23 01:49:14;;;;;;;73.70;35.72;;;;;;;-6.32;49.21;94801.56;5112990;28;20020;-70
2024/01/23 01:51:41;;;;;;;74.40;38.42;;;;;;;-6.43;49.04;94789.13;5111772;28;20546;-70
2024/01/23 01:54:07;;;;;;;88.40;42.15;;;;;;;-6.50;49.71;94803.00;5112107;28;20031;-70
2024/01/23 01:56:33;;;;;;;85.07;42.67;;;;;;;-6.60;49.62;94790.34;5112629;28;20046;-70
2024/01/23 01:58:58;;;;;;;87.80;45.72;;;;;;;-6.39;49.60;94805.88;5112128;28;20531;-70
2024/01/23 02:01:25;;;;;;;89.13;44.92;;;;;;;-6.43;49.85;94804.66;5113060;28;20080;-70
2024/01/23 02:03:51;;;;;;;66.88;35.25;;;;;;;-6.50;49.54;94797.81;5112337;28;20027;-70
2024/01/23 02:06:17;;;;;;;70.47;35.85;;;;;;;-6.59;49.83;94798.91;5112150;28;20064;-70
2024/01/23 02:08:42;;;;;;;74.53;37.47;;;;;;;-6.67;49.37;94766.97;5093925;28;20042;-70
2024/01/23 02:11:08;;;;;;;71.22;36.30;;;;;;;-6.62;49.65;94794.91;5112231;28;20396;-70
2024/01/23 02:13:35;;;;;;;87.53;45.33;;;;;;;-6.47;49.87;94793.06;5112511;28;20048;-70
2024/01/23 02:16:00;;;;;;;89.03;42.10;;;;;;;-6.57;50.18;94784.78;5113022;28;20531;-71
2024/01/23 02:18:26;;;;;;;65.90;35.65;;;;;;;-6.50;48.96;94757.22;5112176;28;20032;-72
2024/01/23 02:20:51;;;;;;;83.35;40.72;;;;;;;-6.43;49.38;94791.69;5111860;28;20378;-70
2024/01/23 02:23:17;;;;;;;75.90;39.20;;;;;;;-6.79;49.98;94770.25;5111863;28;20049;-71
2024/01/23 02:25:43;;;;;;;59.53;31.85;;;;;;;-6.79;50.67;94794.34;5111553;28;20059;-72
2024/01/23 02:28:10;;;;;;;64.57;32.63;;;;;;;-6.83;50.80;94782.72;5112630;28;20080;-71
2024/01/23 02:30:35;;;;;;;69.30;32.13;;;;;;;-6.73;50.81;94785.81;5111782;28;20027;-71
2024/01/23 02:33:05;;;;;;;57.05;30.05;;;;;;;-6.77;50.35;94786.38;5110633;28;20093;-69
2024/01/23 02:35:31;;;;;;;50.00;26.92;;;;;;;-6.75;50.52;94774.06;5111541;28;20059;-72
2024/01/23 02:37:56;;;;;;;49.28;26.30;;;;;;;-6.73;51.22;94777.25;5111773;28;20048;-71
2024/01/23 02:40:22;;;;;;;45.08;22.67;;;;;;;-6.81;50.52;94749.72;5112288;28;20020;-71
2024/01/23 02:42:48;;;;;;;49.72;23.05;;;;;;;-6.85;50.36;94730.38;5111454;28;20035;-71
2024/01/23 02:45:13;;;;;;;50.30;25.55;;;;;;;-6.71;50.08;94744.25;5111663;28;20297;-72
2024/01/23 02:47:39;;;;;;;53.28;26.95;;;;;;;-6.77;49.95;94726.88;5111349;28;20027;-71
2024/01/23 02:50:05;;;;;;;51.72;29.17;;;;;;;-6.74;49.88;94740.25;5111200;28;20038;-72
2024/01/23 02:52:31;;;;;;;57.83;28.75;;;;;;;-6.76;50.34;94733.66;5112064;28;20020;-72
2024/01/23 02:55:00;;;;;;;58.08;31.38;;;;;;;-6.57;50.27;94743.38;5111390;28;20520;-71
2024/01/23 02:57:26;;;;;;;55.05;28.42;;;;;;;-6.72;50.04;94727.13;5111367;28;20035;-72
2024/01/23 02:59:53;;;;;;;39.05;19.77;;;;;;;-6.74;50.18;94722.16;5093271;28;20118;-72
2024/01/23 03:02:18;;;;;;;33.05;17.73;;;;;;;-6.57;50.13;94732.25;5111206;28;20169;-72
2024/01/23 03:04:44;;;;;;;28.42;15.63;;;;;;;-6.61;49.59;94718.88;5110632;28;20520;-72
2024/01/23 03:07:10;;;;;;;35.22;17.98;;;;;;;-6.73;49.78;94702.22;5111684;28;20114;-72
2024/01/23 03:09:35;;;;;;;33.40;17.83;;;;;;;-6.74;49.75;94705.81;5111424;28;20036;-72
2024/01/23 03:12:13;;;;;;;32.53;17.88;;;;;;;-6.97;49.66;94671.56;5111431;28;20035;-72
2024/01/23 03:14:38;;;;;;;31.90;17.55;;;;;;;-6.54;49.44;94717.13;5111193;28;20119;-71
2024/01/23 03:17:04;;;;;;;45.63;24.55;;;;;;;-6.60;49.88;94715.31;5111277;28;20061;-72
2024/01/23 03:19:29;;;;;;;60.75;31.88;;;;;;;-6.78;49.61;94692.44;5111713;28;20380;-71
2024/01/23 03:21:55;;;;;;;49.58;25.58;;;;;;;-6.82;50.09;94696.38;5110936;28;20035;-72
2024/01/23 03:24:20;;;;;;;59.83;31.42;;;;;;;-6.83;50.02;94687.00;5111089;28;20036;-72
2024/01/23 03:26:46;;;;;;;66.47;33.65;;;;;;;-6.73;49.60;94710.00;5110765;28;20051;-71
2024/01/23 03:29:11;;;;;;;76.63;39.60;;;;;;;-6.94;49.97;94681.56;5111293;28;20036;-71
2024/01/23 03:31:37;;;;;;;75.57;38.05;;;;;;;-6.91;49.89;94681.16;5092753;28;20016;-72
2024/01/23 03:34:02;;;;;;;77.22;37.72;;;;;;;-6.94;49.71;94681.56;5111701;28;20066;-71
2024/01/23 03:36:27;;;;;;;75.72;39.88;;;;;;;-7.04;49.59;94655.19;5111121;28;20048;-71
2024/01/23 03:38:53;;;;;;;60.72;31.40;;;;;;;-7.02;49.68;94681.66;5111057;28;20148;-72
2024/01/23 03:41:18;;;;;;;49.70;25.23;;;;;;;-6.94;49.37;94687.53;5092558;28;20027;-72
2024/01/23 03:43:44;;;;;;;42.35;22.27;;;;;;;-7.11;49.59;94657.69;5110784;28;20020;-72
2024/01/23 03:46:09;;;;;;;36.05;21.17;;;;;;;-7.19;50.00;94650.88;5111392;28;20491;-72
2024/01/23 03:48:34;;;;;;;37.47;21.48;;;;;;;-7.02;49.75;94663.56;5110917;28;20475;-72
2024/01/23 03:51:00;;;;;;;58.88;29.85;;;;;;;-7.08;49.63;94662.53;5111010;28;20051;-71
2024/01/23 03:53:25;;;;;;;62.20;32.05;;;;;;;-6.92;49.85;94675.19;5110767;28;20584;-71
2024/01/23 03:55:51;;;;;;;63.80;33.78;;;;;;;-7.02;49.82;94669.53;5110681;28;20490;-71
2024/01/23 03:58:16;;;;;;;56.95;32.20;;;;;;;-7.01;49.48;94665.97;5111303;28;20088;-71
2024/01/23 04:00:42;;;;;;;59.53;30.42;;;;;;;-7.14;50.00;94645.97;5110852;28;20092;-71
2024/01/23 04:03:07;;;;;;;49.28;26.20;;;;;;;-7.23;49.66;94638.50;5110945;28;20096;-72
2024/01/23 04:05:32;;;;;;;47.40;27.70;;;;;;;-7.13;49.36;94655.28;5110657;28;20369;-72
2024/01/23 04:07:58;;;;;;;64.72;32.13;;;;;;;-7.22;49.80;94658.19;5110804;28;20074;-71
2024/01/23 04:10:23;;;;;;;68.47;34.85;;;;;;;-7.23;49.54;94641.91;5110983;28;20024;-71
2024/01/23 04:12:49;;;;;;;78.63;37.08;;;;;;;-7.21;49.41;94650.25;5110544;28;20023;-71
2024/01/23 04:15:14;;;;;;;61.08;34.92;;;;;;;-7.54;49.40;94610.34;5112316;28;20035;-71
2024/01/23 04:17:41;;;;;;;80.25;41.92;;;;;;;-7.23;49.13;94665.16;5114429;28;20450;-71
2024/01/23 04:20:06;;;;;;;94.07;46.97;;;;;;;-7.26;49.24;94673.25;5114358;28;20024;-72
2024/01/23 04:22:34;;;;;;;113.50;54.42;;;;;;;-7.42;49.58;94652.78;5114306;28;20387;-71
2024/01/23 04:24:59;;;;;;;118.70;60.65;;;;;;;-7.33;49.80;94667.22;5115058;28;20015;-71
2024/01/23 04:27:24;;;;;;;126.40;60.65;;;;;;;-7.55;49.82;94619.06;5114086;28;20050;-72
2024/01/23 04:29:50;;;;;;;141.55;62.35;;;;;;;-7.37;49.62;94660.81;5114094;28;20031;-72
2024/01/23 04:32:15;;;;;;;97.32;50.35;;;;;;;-7.41;49.51;94648.44;5095573;28;20031;-72
2024/01/23 04:34:41;;;;;;;99.22;50.42;;;;;;;-7.42;49.30;94641.69;5114178;28;20454;-72
2024/01/23 04:37:06;;;;;;;104.45;49.55;;;;;;;-7.42;49.27;94631.34;5114632;28;20026;-72
2024/01/23 04:39:33;;;;;;;98.63;49.95;;;;;;;-7.34;49.55;94647.53;5113671;28;20118;-71
2024/01/23 04:41:58;;;;;;;99.43;48.13;;;;;;;-7.47;48.81;94629.31;5095459;28;20059;-71
2024/01/23 04:44:23;;;;;;;99.55;48.90;;;;;;;-7.38;48.66;94635.97;5114031;28;20055;-71
2024/01/23 04:46:49;;;;;;;110.00;55.13;;;;;;;-7.67;48.82;94597.28;5113738;28;20062;-71
2024/01/23 04:49:14;;;;;;;114.53;57.08;;;;;;;-7.57;49.49;94623.63;5114480;28;20027;-71
2024/01/23 04:51:40;;;;;;;123.88;60.58;;;;;;;-7.58;49.77;94643.50;5113561;28;20039;-71
2024/01/23 04:54:05;;;;;;;125.55;63.08;;;;;;;-7.56;50.46;94657.00;5113352;28;20080;-71
2024/01/23 04:56:30;;;;;;;125.78;62.45;;;;;;;-7.42;50.93;94672.69;5113407;28;20048;-72
2024/01/23 04:58:56;;;;;;;138.77;63.30;;;;;;;-7.58;51.30;94646.09;5113670;28;20039;-71
2024/01/23 05:01:21;;;;;;;124.97;61.63;;;;;;;-7.48;50.98;94658.72;5114143;28;20027;-72
2024/01/23 05:03:47;;;;;;;122.97;63.75;;;;;;;-7.50;50.46;94669.22;5113581;28;20118;-71
2024/01/23 05:06:12;;;;;;;123.40;62.90;;;;;;;-7.58;50.24;94628.00;5113037;28;20169;-71
2024/01/23 05:08:37;;;;;;;129.23;61.63;;;;;;;-7.39;49.46;94656.81;5113196;28;20055;-71
2024/01/23 05:11:03;;;;;;;126.47;61.83;;;;;;;-7.62;49.16;94642.25;5095317;28;20106;-72
2024/01/23 05:13:29;;;;;;;128.27;62.80;;;;;;;-7.50;49.20;94663.25;5114202;28;20498;-71
2024/01/23 05:15:54;;;;;;;142.48;64.90;;;;;;;-7.66;49.44;94646.16;5113381;28;20032;-71
2024/01/23 05:18:19;;;;;;;142.27;67.68;;;;;;;-7.57;49.37;94659.81;5113344;28;20028;-71
2024/01/23 05:20:45;;;;;;;131.73;64.13;;;;;;;-7.67;49.18;94659.28;5112189;28;20024;-71
2024/01/23 05:23:10;;;;;;;145.30;66.38;;;;;;;-7.79;49.76;94645.22;5113248;28;20134;-71
2024/01/23 05:25:38;;;;;;;134.98;66.20;;;;;;;-7.83;50.21;94633.66;5111173;28;20421;-71
2024/01/23 05:28:04;;;;;;;123.88;61.03;;;;;;;-7.68;50.07;94649.91;5112892;28;20048;-71
2024/01/23 05:30:32;;;;;;;136.00;63.45;;;;;;;-7.66;49.80;94646.16;5094156;28;20051;-71
2024/01/23 05:32:58;;;;;;;124.22;63.42;;;;;;;-7.71;49.50;94647.69;5093788;28;20035;-71
2024/01/23 05:35:23;;;;;;;119.93;61.40;;;;;;;-7.81;49.18;94652.34;5111217;28;20035;-71
2024/01/23 05:37:49;;;;;;;130.43;62.70;;;;;;;-7.82;49.43;94645.59;5111781;28;20682;-70
2024/01/23 05:40:15;;;;;;;122.50;59.15;;;;;;;-8.08;49.58;94638.28;5093975;28;20055;-69
2024/01/23 05:42:40;;;;;;;126.47;64.28;;;;;;;-8.32;49.83;94621.28;5111536;28;20148;-71
2024/01/23 05:45:06;;;;;;;124.00;61.13;;;;;;;-8.10;49.86;94620.38;5111118;28;20067;-70
2024/01/23 05:47:32;;;;;;;117.60;59.13;;;;;;;-8.17;49.61;94604.03;5111907;28;20047;-70
2024/01/23 05:49:57;;;;;;;121.15;60.42;;;;;;;-7.98;49.56;94636.25;5112439;28;20027;-70
2024/01/23 05:52:23;;;;;;;125.22;62.45;;;;;;;-8.31;49.33;94589.34;5113000;28;20023;-70
2024/01/23 05:54:49;;;;;;;126.60;58.95;;;;;;;-8.18;49.10;94630.81;5112233;28;20027;-70
2024/01/23 05:57:15;;;;;;;119.60;59.42;;;;;;;-8.28;49.52;94617.38;5112279;28;20047;-70
2024/01/23 05:59:41;;;;;;;121.90;59.13;;;;;;;-8.34;49.32;94602.59;5093889;28;20058;-70
2024/01/23 06:02:07;;;;;;;118.38;58.90;;;;;;;-8.35;49.27;94613.91;5112599;28;20508;-71
2024/01/23 06:04:32;;;;;;;119.25;59.10;;;;;;;-8.26;48.61;94618.00;5094075;28;20027;-71
2024/01/23 06:06:59;;;;;;;128.40;60.88;;;;;;;-8.15;49.16;94617.53;5112662;28;20472;-70
2024/01/23 06:09:24;;;;;;;125.85;62.80;;;;;;;-8.38;49.52;94578.13;5094495;28;20088;-70
2024/01/23 06:11:51;;;;;;;121.45;61.33;;;;;;;-8.22;50.36;94614.09;5112136;28;20313;-70
2024/01/23 06:14:17;;;;;;;134.68;60.30;;;;;;;-8.52;50.04;94584.91;5112101;28;20023;-70
2024/01/23 06:16:42;;;;;;;140.48;69.82;;;;;;;-8.16;50.75;94618.53;5111788;28;20016;-70
2024/01/23 06:19:08;;;;;;;144.50;70.50;;;;;;;-8.17;51.21;94627.25;5094119;28;20028;-70
2024/01/23 06:21:35;;;;;;;140.00;66.97;;;;;;;-8.47;51.91;94605.81;5111969;28;20093;-70
2024/01/23 06:24:00;;;;;;;126.70;63.72;;;;;;;-8.33;51.25;94611.94;5112112;28;20034;-70
2024/01/23 06:26:26;;;;;;;148.02;71.05;;;;;;;-7.97;51.21;94633.47;5111648;28;20249;-70
2024/01/23 06:28:51;;;;;;;130.30;67.57;;;;;;;-7.99;51.58;94648.34;5111468;28;20412;-70
2024/01/23 06:31:17;;;;;;;142.10;66.93;;;;;;;-8.05;52.15;94649.03;5112535;28;20080;-70
2024/01/23 06:33:43;;;;;;;130.73;67.88;;;;;;;-8.04;51.84;94648.06;5093605;28;20031;-70
2024/01/23 06:36:08;;;;;;;137.93;66.38;;;;;;;-8.32;52.47;94612.75;5112024;28;20027;-71
2024/01/23 06:38:34;;;;;;;140.23;67.18;;;;;;;-7.89;52.42;94666.16;5093525;28;20039;-71
2024/01/23 06:41:00;;;;;;;144.82;68.75;;;;;;;-8.10;52.28;94653.94;5112402;28;20035;-71
2024/01/23 06:43:27;;;;;;;144.85;68.82;;;;;;;-7.89;52.18;94673.09;5094478;28;20031;-71
2024/01/23 06:45:53;;;;;;;136.65;69.80;;;;;;;-7.87;52.59;94678.88;5111317;28;20037;-71
2024/01/23 06:48:19;;;;;;;137.82;68.20;;;;;;;-7.84;52.39;94683.69;5093644;28;20492;-70
2024/01/23 06:50:44;;;;;;;167.32;73.88;;;;;;;-7.91;52.88;94678.44;5111395;28;20039;-70
2024/01/23 06:53:10;;;;;;;145.82;72.95;;;;;;;-7.97;52.51;94659.31;5110578;28;20047;-70
2024/01/23 06:55:35;;;;;;;153.90;75.20;;;;;;;-7.86;52.28;94660.59;5092000;28;20027;-70
2024/01/23 06:58:01;;;;;;;151.98;74.53;;;;;;;-7.69;52.47;94681.91;5111625;28;20769;-70
2024/01/23 07:00:27;;;;;;;161.57;76.10;;;;;;;-7.74;52.57;94676.47;5109751;28;20028;-70
2024/01/23 07:02:52;;;;;;;179.80;84.55;;;;;;;-7.75;53.41;94664.53;5111109;28;20031;-70
2024/01/23 07:05:18;;;;;;;171.90;84.38;;;;;;;-8.32;55.01;94654.03;5092589;28;20038;-69
2024/01/23 07:07:43;;;;;;;170.10;82.43;;;;;;;-8.11;55.18;94651.56;5110242;28;20111;-69
2024/01/23 07:10:12;;;;;;;155.30;80.50;;;;;;;-7.67;54.55;94672.19;5111444;28;20387;-70
2024/01/23 07:12:37;;;;;;;177.43;84.50;;;;;;;-7.77;54.97;94666.50;5110848;28;20032;-70
2024/01/23 07:15:03;;;;;;;176.18;83.88;;;;;;;-8.20;56.05;94662.97;5092129;28;20403;-69
2024/01/23 07:17:30;;;;;;;186.32;86.53;;;;;;;-8.70;58.39;94655.84;5110485;28;20038;-70
2024/01/23 07:19:55;;;;;;;178.35;82.22;;;;;;;-8.63;58.71;94642.06;5110092;28;20031;-70
2024/01/23 07:22:21;;;;;;;167.02;78.35;;;;;;;-8.65;59.44;94622.59;5110831;28;20045;-70
2024/01/23 07:24:46;;;;;;;149.02;76.35;;;;;;;-8.45;59.57;94611.56;5110310;28;20035;-70
2024/01/23 07:27:12;;;;;;;149.25;76.82;;;;;;;-8.20;59.87;94631.97;5110114;28;20504;-70
2024/01/23 07:29:38;;;;;;;155.57;72.40;;;;;;;-7.96;60.13;94623.97;5110603;28;20032;-70
2024/01/23 07:32:05;;;;;;;154.02;72.43;;;;;;;-7.48;58.26;94642.41;5110348;28;20081;-70
2024/01/23 07:34:30;;;;;;;145.50;73.38;;;;;;;-7.09;57.02;94641.03;5110895;28;20024;-70
2024/01/23 07:36:56;;;;;;;142.82;71.82;;;;;;;-7.08;57.87;94658.13;5091193;28;20039;-70
2024/01/23 07:39:22;;;;;;;131.60;68.38;;;;;;;-6.69;57.54;94655.09;5110183;28;20032;-70
2024/01/23 07:41:47;;;;;;;143.07;75.63;;;;;;;-6.55;56.79;94645.69;5109956;28;20528;-70
2024/01/23 07:44:13;;;;;;;169.13;86.25;;;;;;;-6.79;57.41;94657.22;5109327;28;20039;-70
2024/01/23 07:46:38;;;;;;;174.00;84.28;;;;;;;-6.83;57.58;94652.59;5091420;28;20020;-70
2024/01/23 07:49:03;;;;;;;187.32;88.75;;;;;;;-7.18;58.11;94634.38;5110702;28;20365;-70
2024/01/23 07:51:49;;;;;;;175.48;86.85;;;;;;;-7.30;59.14;94684.16;5114012;28;20027;-70
2024/01/23 07:54:15;;;;;;;167.02;81.93;;;;;;;-7.01;58.57;94659.97;5113939;28;20032;-70
2024/01/23 07:56:40;;;;;;;169.50;84.78;;;;;;;-6.54;57.11;94662.00;5113764;28;20032;-70
2024/01/23 07:59:06;;;;;;;168.90;90.80;;;;;;;-6.36;56.63;94655.38;5113839;28;20396;-70
2024/01/23 08:01:31;;;;;;;161.73;79.90;;;;;;;-6.95;57.80;94644.53;5114254;28;20115;-70
2024/01/23 08:03:57;;;;;;;180.20;83.10;;;;;;;-7.46;60.61;94666.25;5114272;28;20568;-70
2024/01/23 08:06:23;;;;;;;158.65;81.90;;;;;;;-7.54;61.44;94669.75;5113876;28;20547;-70
2024/01/23 08:08:50;;;;;;;183.98;83.88;;;;;;;-6.94;61.27;94663.44;5113957;28;20096;-70
2024/01/23 08:11:16;;;;;;;170.73;86.63;;;;;;;-6.38;59.25;94664.31;5113670;28;20032;-70
2024/01/23 08:13:41;;;;;;;157.75;81.45;;;;;;;-6.63;58.97;94627.69;5113728;28;20019;-70
2024/01/23 08:16:10;;;;;;;155.05;77.05;;;;;;;-6.23;59.51;94665.00;5114552;28;20016;-70
2024/01/23 08:18:36;;;;;;;147.48;79.22;;;;;;;-6.30;58.46;94646.84;5113405;28;20035;-70
2024/01/23 08:21:05;;;;;;;142.98;74.50;;;;;;;-6.20;58.56;94654.31;5113769;28;20073;-70
2024/01/23 08:23:31;;;;;;;148.65;75.88;;;;;;;-6.16;57.58;94639.97;5095352;28;20055;-70
2024/01/23 08:25:56;;;;;;;136.05;74.72;;;;;;;-5.71;57.26;94654.16;5113341;28;20070;-70
2024/01/23 08:28:23;;;;;;;156.35;84.75;;;;;;;-6.08;57.56;94631.25;5096007;28;20074;-70
2024/01/23 08:30:49;;;;;;;152.32;81.28;;;;;;;-5.62;56.81;94668.56;5113546;28;20492;-69
2024/01/23 08:33:18;;;;;;;121.78;68.32;;;;;;;-5.78;57.60;94642.97;5113144;28;20040;-69
2024/01/23 08:35:44;;;;;;;120.15;61.53;;;;;;;-5.48;56.63;94656.47;5113496;28;20028;-69
2024/01/23 08:38:10;;;;;;;117.40;62.83;;;;;;;-5.03;56.07;94662.81;5112399;28;20236;-70
2024/01/23 08:40:37;;;;;;;109.65;57.92;;;;;;;-5.11;55.21;94639.63;5113511;28;20106;-70
2024/01/23 08:43:03;;;;;;;122.63;64.22;;;;;;;-5.10;55.43;94659.38;5113772;28;20023;-70
2024/01/23 08:45:29;;;;;;;114.25;59.92;;;;;;;-5.08;55.34;94670.38;5095042;28;20027;-70
2024/01/23 08:47:55;;;;;;;117.72;59.97;;;;;;;-4.81;54.54;94650.44;5112934;28;20555;-70
2024/01/23 08:50:20;;;;;;;121.22;65.38;;;;;;;-4.72;54.47;94651.84;5113108;28;20035;-70
2024/01/23 08:52:47;;;;;;;110.60;62.53;;;;;;;-4.58;54.41;94628.31;5113216;28;20030;-70
2024/01/23 08:55:12;;;;;;;121.72;65.20;;;;;;;-4.43;53.98;94649.66;5094997;28;20388;-70
2024/01/23 08:57:39;;;;;;;132.90;70.65;;;;;;;-4.68;53.99;94633.09;5113163;28;20031;-70
2024/01/23 09:00:11;;;;;;;125.50;70.47;;;;;;;-4.85;55.11;94655.25;5112984;28;20523;-69
2024/01/23 09:02:37;;;;;;;137.15;72.82;;;;;;;-4.90;56.17;94657.63;5113039;28;20050;-70
2024/01/23 09:05:03;;;;;;;127.07;72.03;;;;;;;-4.68;55.55;94630.50;5112449;28;20023;-70
2024/01/23 09:07:29;;;;;;;152.27;76.35;;;;;;;-4.62;55.32;94645.28;5113402;28;20016;-70
2024/01/23 09:09:54;;;;;;;133.70;71.93;;;;;;;-4.68;54.90;94627.91;5112306;28;20046;-70
2024/01/23 09:12:21;;;;;;;137.93;75.07;;;;;;;-4.29;54.63;94623.72;5113090;28;20442;-70
2024/01/23 09:14:47;;;;;;;138.93;74.55;;;;;;;-4.69;55.69;94634.09;5112658;28;20027;-70
2024/01/23 09:17:12;;;;;;;152.13;79.10;;;;;;;-4.24;54.97;94634.28;5093932;28;20036;-70
2024/01/23 09:19:38;;;;;;;149.38;74.35;;;;;;;-3.96;53.68;94639.25;5112275;28;20016;-70
2024/01/23 09:22:04;;;;;;;149.95;78.30;;;;;;;-4.72;55.05;94618.91;5112811;28;20038;-70
2024/01/23 09:24:30;;;;;;;144.13;80.13;;;;;;;-4.18;54.77;94620.47;5112283;28;20066;-70
2024/01/23 09:26:59;;;;;;;145.75;77.93;;;;;;;-3.82;53.94;94620.81;5112093;28;20067;-70
2024/01/23 09:29:28;;;;;;;146.52;78.85;;;;;;;-3.54;53.29;94632.72;5093643;28;20431;-70
2024/01/23 09:31:53;;;;;;;146.32;80.95;;;;;;;-3.45;52.50;94636.69;5112154;28;20077;-70
2024/01/23 09:34:19;;;;;;;148.82;80.90;;;;;;;-3.85;52.48;94605.63;5112550;28;20426;-70
2024/01/23 09:36:44;;;;;;;160.32;82.65;;;;;;;-3.49;51.87;94619.91;5111746;28;20036;-70
2024/01/23 09:39:13;;;;;;;161.63;83.43;;;;;;;-4.26;53.15;94625.91;5111508;28;20035;-70
2024/01/23 09:41:49;;;;;;;177.82;84.25;;;;;;;-4.10;53.32;94607.31;5093751;28;20098;-70
2024/01/23 09:44:18;;;;;;;163.90;84.18;;;;;;;-4.01;52.60;94593.09;5111778;28;20527;-70
2024/01/23 09:46:44;;;;;;;154.05;84.63;;;;;;;-4.14;53.46;94593.91;5111804;28;20031;-70
2024/01/23 09:49:11;;;;;;;164.40;84.80;;;;;;;-4.29;52.98;94595.16;5112458;28;20030;-70
2024/01/23 09:51:40;;;;;;;159.85;84.47;;;;;;;-4.12;53.10;94593.72;5093261;28;20039;-70
2024/01/23 09:54:07;;;;;;;155.45;82.70;;;;;;;-4.06;53.02;94587.69;5111890;28;20051;-70
2024/01/23 09:56:34;;;;;;;165.40;85.85;;;;;;;-3.94;52.63;94593.03;5111781;28;20028;-70
2024/01/23 09:58:59;;;;;;;161.95;88.47;;;;;;;-3.67;52.64;94591.97;5111601;28;20028;-70
2024/01/23 10:01:26;;;;;;;180.73;91.25;;;;;;;-3.54;52.41;94576.31;5112187;28;20617;-70
2024/01/23 10:03:56;;;;;;;162.05;88.15;;;;;;;-3.30;51.73;94573.00;5111583;28;20115;-70
2024/01/23 10:06:21;;;;;;;164.98;87.53;;;;;;;-3.32;52.00;94576.81;5111630;28;20032;-70
2024/01/23 10:08:47;;;;;;;172.50;88.53;;;;;;;-3.01;51.04;94576.81;5093434;28;20053;-70
2024/01/23 10:11:12;;;;;;;163.38;87.80;;;;;;;-2.99;50.73;94580.00;5111517;28;20024;-70
2024/01/23 10:13:37;;;;;;;180.43;94.57;;;;;;;-3.07;50.77;94567.22;5110970;28;20055;-71
2024/01/23 10:16:04;;;;;;;174.30;89.13;;;;;;;-2.75;50.24;94581.03;5112118;28;20024;-70
2024/01/23 10:18:31;;;;;;;162.80;86.95;;;;;;;-2.79;50.27;94570.25;5111477;28;20100;-70
2024/01/23 10:20:57;;;;;;;179.82;92.45;;;;;;;-2.95;50.51;94554.34;5093289;28;20092;-71
2024/01/23 10:23:23;;;;;;;160.98;90.38;;;;;;;-2.71;49.77;94538.75;5111384;28;20068;-71
2024/01/23 10:25:48;;;;;;;175.85;92.68;;;;;;;-2.70;50.57;94544.75;5111304;28;20077;-70
2024/01/23 10:28:15;;;;;;;174.63;95.50;;;;;;;-2.39;50.12;94529.03;5111707;28;20062;-70
2024/01/23 10:30:40;;;;;;;168.95;90.53;;;;;;;-2.57;50.15;94533.41;5111188;28;20031;-70
2024/01/23 10:33:06;;;;;;;171.38;90.93;;;;;;;-2.77;50.38;94544.78;5111014;28;20114;-70
2024/01/23 10:35:35;;;;;;;159.45;89.55;;;;;;;-2.90;51.10;94552.72;5111277;28;20032;-71
2024/01/23 10:38:07;;;;;;;161.80;88.93;;;;;;;-3.47;52.45;94556.28;5111434;28;20043;-70
2024/01/23 10:40:33;;;;;;;181.05;91.22;;;;;;;-3.76;52.37;94526.44;5111169;28;20476;-71
2024/01/23 10:42:59;;;;;;;163.25;90.07;;;;;;;-3.29;51.79;94545.97;5110882;28;20023;-70
2024/01/23 10:45:25;;;;;;;179.80;92.50;;;;;;;-3.19;51.91;94542.91;5109770;28;20032;-71
2024/01/23 10:47:52;;;;;;;169.20;89.18;;;;;;;-3.13;52.10;94526.47;5109852;28;20031;-71
2024/01/23 10:50:21;;;;;;;166.18;90.50;;;;;;;-2.85;52.43;94521.63;5110988;28;20028;-70
2024/01/23 10:52:48;;;;;;;172.13;93.13;;;;;;;-2.75;51.74;94532.38;5092886;28;20028;-71
2024/01/23 10:55:21;;;;;;;161.23;89.65;;;;;;;-2.48;51.47;94519.91;5093126;28;20084;-70
2024/01/23 10:57:47;;;;;;;173.82;92.47;;;;;;;-2.61;51.31;94514.03;5109201;28;20036;-71
2024/01/23 11:00:18;;;;;;;181.43;96.28;;;;;;;-2.47;50.63;94520.69;5109303;28;20028;-71
2024/01/23 11:03:04;;;;;;;185.75;96.32;;;;;;;-2.20;50.73;94501.19;5090715;28;20055;-71
2024/01/23 11:05:49;;;;;;;177.85;95.82;;;;;;;-2.26;50.44;94502.84;5109412;28;20114;-70
2024/01/23 11:08:15;;;;;;;;;;;;;;;-1.72;48.86;94498.63;5109273;28;20043;-71